AWC732 EGNV-EGHI
Flight info
| Callsign | AWC732 |
|---|---|
| Flight time | 0h 49m |
| Altitude | 35000 |
| Route | GASKO P16 RIBEL UP16 CROFT DCT KEPAD L151 PEPUL Y322 BUGUP |
| Aircraft | A320/M-SDE3FGHIRWY/LB1 |
Departure
| Time | 2026-05-09 09:45 |
|---|---|
| Airport | Teesside International Airport (EGNV) |
Arrival
| Time | 2026-05-09 10:34 |
|---|---|
| Airport | Southampton Airport (EGHI) |
| Time | Latitude | Longitude | Altitude | Speed | Heading |
|---|---|---|---|---|---|
| 2026-05-09 09:29 | 54.51147 | -1.43245 | 124 ft | 0 kts | 331° |
| 2026-05-09 09:38 | 54.51133 | -1.43232 | 120 ft | 4 kts | 326° |
| 2026-05-09 09:38 | 54.51112 | -1.43203 | 121 ft | 4 kts | 306° |
| 2026-05-09 09:38 | 54.51103 | -1.43168 | 124 ft | 4 kts | 234° |
| 2026-05-09 09:39 | 54.51110 | -1.43157 | 120 ft | 1 kts | 207° |
| 2026-05-09 09:39 | 54.51111 | -1.43156 | 120 ft | 0 kts | 207° |
| 2026-05-09 09:41 | 54.51100 | -1.43166 | 124 ft | 4 kts | 207° |
| 2026-05-09 09:41 | 54.51069 | -1.43149 | 125 ft | 7 kts | 122° |
| 2026-05-09 09:41 | 54.51062 | -1.43019 | 125 ft | 15 kts | 93° |
| 2026-05-09 09:42 | 54.51058 | -1.42818 | 124 ft | 16 kts | 97° |
| 2026-05-09 09:42 | 54.50971 | -1.42845 | 123 ft | 18 kts | 227° |
| 2026-05-09 09:42 | 54.50875 | -1.43024 | 125 ft | 22 kts | 227° |
| 2026-05-09 09:42 | 54.50761 | -1.43238 | 124 ft | 26 kts | 227° |
| 2026-05-09 09:43 | 54.50627 | -1.43490 | 122 ft | 31 kts | 227° |
| 2026-05-09 09:43 | 54.50469 | -1.43787 | 122 ft | 35 kts | 227° |
| 2026-05-09 09:43 | 54.50324 | -1.44073 | 125 ft | 23 kts | 237° |
| 2026-05-09 09:43 | 54.50281 | -1.44170 | 124 ft | 2 kts | 221° |
| 2026-05-09 09:44 | 54.50267 | -1.44153 | 123 ft | 3 kts | 109° |
| 2026-05-09 09:44 | 54.50287 | -1.44120 | 125 ft | 8 kts | 41° |
| 2026-05-09 09:44 | 54.50520 | -1.43689 | 120 ft | 90 kts | 47° |
| 2026-05-09 09:44 | 54.51095 | -1.42620 | 225 ft | 142 kts | 46° |
| 2026-05-09 09:45 | 54.51802 | -1.41314 | 835 ft | 155 kts | 44° |
| 2026-05-09 09:45 | 54.52554 | -1.39928 | 1662 ft | 161 kts | 46° |
| 2026-05-09 09:45 | 54.53354 | -1.38506 | 2296 ft | 175 kts | 46° |
| 2026-05-09 09:45 | 54.53894 | -1.36452 | 2698 ft | 204 kts | 84° |
| 2026-05-09 09:46 | 54.53568 | -1.33937 | 3218 ft | 233 kts | 119° |
| 2026-05-09 09:46 | 54.52373 | -1.31877 | 3885 ft | 257 kts | 151° |
| 2026-05-09 09:46 | 54.51263 | -1.31121 | 4570 ft | 262 kts | 168° |
| 2026-05-09 09:46 | 54.49454 | -1.31126 | 5771 ft | 262 kts | 195° |
| 2026-05-09 09:47 | 54.47831 | -1.32544 | 6984 ft | 266 kts | 221° |
| 2026-05-09 09:47 | 54.46670 | -1.35016 | 8105 ft | 268 kts | 236° |
| 2026-05-09 09:47 | 54.45622 | -1.37686 | 9209 ft | 271 kts | 236° |
| 2026-05-09 09:47 | 54.44564 | -1.40392 | 10276 ft | 274 kts | 236° |
| 2026-05-09 09:48 | 54.43457 | -1.43217 | 10819 ft | 296 kts | 236° |
| 2026-05-09 09:48 | 54.42277 | -1.46211 | 11515 ft | 307 kts | 236° |
| 2026-05-09 09:48 | 54.41048 | -1.49310 | 12429 ft | 312 kts | 235° |
| 2026-05-09 09:48 | 54.39817 | -1.52403 | 13358 ft | 316 kts | 235° |
| 2026-05-09 09:49 | 54.38567 | -1.55535 | 14252 ft | 320 kts | 235° |
| 2026-05-09 09:49 | 54.37303 | -1.58699 | 15092 ft | 323 kts | 235° |
| 2026-05-09 09:49 | 54.36025 | -1.61895 | 15929 ft | 326 kts | 236° |
| 2026-05-09 09:49 | 54.34739 | -1.65107 | 16752 ft | 329 kts | 236° |
| 2026-05-09 09:50 | 54.33438 | -1.68354 | 17573 ft | 332 kts | 236° |
| 2026-05-09 09:50 | 54.32128 | -1.71627 | 18402 ft | 335 kts | 236° |
| 2026-05-09 09:50 | 54.30801 | -1.74940 | 19143 ft | 338 kts | 236° |
| 2026-05-09 09:50 | 54.29468 | -1.78268 | 19915 ft | 340 kts | 236° |
| 2026-05-09 09:51 | 54.28121 | -1.81615 | 20706 ft | 342 kts | 236° |
| 2026-05-09 09:51 | 54.26767 | -1.84973 | 21480 ft | 344 kts | 236° |
| 2026-05-09 09:51 | 54.25395 | -1.88367 | 22220 ft | 347 kts | 236° |
| 2026-05-09 09:51 | 54.24021 | -1.91764 | 22956 ft | 349 kts | 236° |
| 2026-05-09 09:52 | 54.22600 | -1.95150 | 23709 ft | 352 kts | 231° |
| 2026-05-09 09:52 | 54.20780 | -1.97976 | 24081 ft | 357 kts | 215° |
| 2026-05-09 09:52 | 54.18492 | -1.99674 | 24181 ft | 363 kts | 197° |
| 2026-05-09 09:52 | 54.15960 | -2.00054 | 24209 ft | 369 kts | 185° |
| 2026-05-09 09:53 | 54.13385 | -2.00116 | 24205 ft | 369 kts | 185° |
| 2026-05-09 09:53 | 54.10800 | -2.00151 | 24577 ft | 373 kts | 185° |
| 2026-05-09 09:53 | 54.08200 | -2.00184 | 25267 ft | 374 kts | 185° |
| 2026-05-09 09:53 | 54.05591 | -2.00229 | 25908 ft | 375 kts | 185° |
| 2026-05-09 09:54 | 54.02975 | -2.00290 | 26536 ft | 377 kts | 185° |
| 2026-05-09 09:54 | 54.00349 | -2.00359 | 27033 ft | 378 kts | 185° |
| 2026-05-09 09:54 | 53.97683 | -2.00430 | 27170 ft | 378 kts | 184° |
| 2026-05-09 09:54 | 53.95059 | -2.00499 | 27195 ft | 377 kts | 184° |
| 2026-05-09 09:55 | 53.92423 | -2.00565 | 27457 ft | 380 kts | 184° |
| 2026-05-09 09:55 | 53.89772 | -2.00627 | 28078 ft | 382 kts | 184° |
| 2026-05-09 09:55 | 53.87109 | -2.00688 | 28669 ft | 383 kts | 184° |
| 2026-05-09 09:55 | 53.84440 | -2.00751 | 29223 ft | 385 kts | 184° |
| 2026-05-09 09:56 | 53.81753 | -2.00816 | 29779 ft | 387 kts | 184° |
| 2026-05-09 09:56 | 53.79053 | -2.00880 | 30322 ft | 389 kts | 184° |
| 2026-05-09 09:56 | 53.76343 | -2.00947 | 30790 ft | 391 kts | 184° |
| 2026-05-09 09:56 | 53.73615 | -2.01018 | 31257 ft | 394 kts | 183° |
| 2026-05-09 09:57 | 53.70863 | -2.01089 | 31704 ft | 396 kts | 183° |
| 2026-05-09 09:57 | 53.68100 | -2.01157 | 32163 ft | 398 kts | 183° |
| 2026-05-09 09:57 | 53.65338 | -2.01223 | 32792 ft | 396 kts | 183° |
| 2026-05-09 09:57 | 53.62597 | -2.01288 | 33442 ft | 393 kts | 183° |
| 2026-05-09 09:58 | 53.59863 | -2.01357 | 34101 ft | 391 kts | 182° |
| 2026-05-09 09:58 | 53.57153 | -2.01427 | 34641 ft | 390 kts | 182° |
| 2026-05-09 09:58 | 53.54433 | -2.01497 | 35049 ft | 392 kts | 182° |
| 2026-05-09 09:58 | 53.51699 | -2.01567 | 35162 ft | 392 kts | 182° |
| 2026-05-09 09:59 | 53.49009 | -2.01631 | 35187 ft | 381 kts | 182° |
| 2026-05-09 09:59 | 53.43722 | -2.01752 | 35189 ft | 375 kts | 182° |
| 2026-05-09 10:00 | 53.38506 | -2.01876 | 35188 ft | 375 kts | 182° |
| 2026-05-09 10:00 | 53.33291 | -2.02009 | 35191 ft | 374 kts | 182° |
| 2026-05-09 10:01 | 53.28089 | -2.02132 | 35184 ft | 374 kts | 182° |
| 2026-05-09 10:01 | 53.22883 | -2.02247 | 35183 ft | 374 kts | 182° |
| 2026-05-09 10:02 | 53.17670 | -2.02380 | 35188 ft | 374 kts | 182° |
| 2026-05-09 10:02 | 53.12463 | -2.02513 | 35183 ft | 374 kts | 182° |
| 2026-05-09 10:03 | 53.07252 | -2.02644 | 35184 ft | 374 kts | 181° |
| 2026-05-09 10:03 | 53.02042 | -2.02762 | 35174 ft | 374 kts | 181° |
| 2026-05-09 10:04 | 52.96832 | -2.02884 | 35175 ft | 374 kts | 181° |
| 2026-05-09 10:04 | 52.91614 | -2.03019 | 35166 ft | 381 kts | 181° |
| 2026-05-09 10:05 | 52.86231 | -2.03142 | 35161 ft | 390 kts | 181° |
| 2026-05-09 10:05 | 52.80786 | -2.03270 | 35160 ft | 392 kts | 181° |
| 2026-05-09 10:06 | 52.75332 | -2.03396 | 35158 ft | 392 kts | 181° |
| 2026-05-09 10:06 | 52.69873 | -2.03524 | 35158 ft | 392 kts | 181° |
| 2026-05-09 10:07 | 52.64413 | -2.03654 | 35162 ft | 392 kts | 181° |
| 2026-05-09 10:07 | 52.58916 | -2.03778 | 35161 ft | 393 kts | 181° |
| 2026-05-09 10:08 | 52.53447 | -2.03910 | 35159 ft | 393 kts | 181° |
| 2026-05-09 10:08 | 52.47978 | -2.04040 | 35171 ft | 393 kts | 181° |
| 2026-05-09 10:09 | 52.42507 | -2.03873 | 35167 ft | 394 kts | 171° |
| 2026-05-09 10:09 | 52.39883 | -2.02590 | 35166 ft | 397 kts | 158° |
| 2026-05-09 10:09 | 52.37490 | -2.00317 | 35167 ft | 400 kts | 149° |
| 2026-05-09 10:10 | 52.32848 | -1.95286 | 35159 ft | 400 kts | 149° |
| 2026-05-09 10:10 | 52.28193 | -1.90276 | 35160 ft | 401 kts | 149° |
| 2026-05-09 10:11 | 52.23235 | -1.86271 | 35162 ft | 398 kts | 159° |
| 2026-05-09 10:11 | 52.18137 | -1.82720 | 35146 ft | 396 kts | 159° |
| 2026-05-09 10:11 | 52.15651 | -1.80984 | 34864 ft | 381 kts | 159° |
| 2026-05-09 10:12 | 52.13203 | -1.79277 | 34036 ft | 375 kts | 159° |
| 2026-05-09 10:12 | 52.11448 | -1.78054 | 33277 ft | 373 kts | 159° |
| 2026-05-09 10:12 | 52.09084 | -1.76408 | 32401 ft | 367 kts | 159° |
| 2026-05-09 10:12 | 52.06749 | -1.74790 | 31566 ft | 362 kts | 159° |
| 2026-05-09 10:13 | 52.04445 | -1.73196 | 30760 ft | 358 kts | 159° |
| 2026-05-09 10:13 | 52.02166 | -1.71625 | 29920 ft | 355 kts | 159° |
| 2026-05-09 10:13 | 51.99904 | -1.70064 | 29004 ft | 352 kts | 159° |
| 2026-05-09 10:13 | 51.97659 | -1.68513 | 28149 ft | 349 kts | 159° |
| 2026-05-09 10:14 | 51.95430 | -1.66974 | 27309 ft | 347 kts | 159° |
| 2026-05-09 10:14 | 51.93217 | -1.65450 | 26465 ft | 345 kts | 159° |
| 2026-05-09 10:14 | 51.91019 | -1.63937 | 25630 ft | 343 kts | 159° |
| 2026-05-09 10:14 | 51.88828 | -1.62428 | 24811 ft | 341 kts | 158° |
| 2026-05-09 10:15 | 51.86716 | -1.60717 | 24012 ft | 340 kts | 150° |
| 2026-05-09 10:15 | 51.84687 | -1.58756 | 23128 ft | 339 kts | 150° |
| 2026-05-09 10:15 | 51.82671 | -1.56814 | 22258 ft | 336 kts | 150° |
| 2026-05-09 10:15 | 51.80645 | -1.54864 | 21427 ft | 333 kts | 150° |
| 2026-05-09 10:16 | 51.78743 | -1.53033 | 20674 ft | 329 kts | 150° |
| 2026-05-09 10:16 | 51.76719 | -1.51087 | 19893 ft | 326 kts | 150° |
| 2026-05-09 10:16 | 51.74779 | -1.49231 | 19153 ft | 323 kts | 151° |
| 2026-05-09 10:16 | 51.73505 | -1.48015 | 18672 ft | 321 kts | 151° |
| 2026-05-09 10:17 | 51.71596 | -1.46188 | 17895 ft | 318 kts | 150° |
| 2026-05-09 10:17 | 51.69695 | -1.44393 | 17095 ft | 314 kts | 154° |
| 2026-05-09 10:17 | 51.67687 | -1.43077 | 16326 ft | 310 kts | 161° |
| 2026-05-09 10:17 | 51.65665 | -1.41893 | 15571 ft | 308 kts | 162° |
| 2026-05-09 10:18 | 51.63658 | -1.40713 | 14844 ft | 306 kts | 161° |
| 2026-05-09 10:18 | 51.61665 | -1.39535 | 14125 ft | 304 kts | 162° |
| 2026-05-09 10:18 | 51.59684 | -1.38362 | 13376 ft | 302 kts | 161° |
| 2026-05-09 10:18 | 51.57723 | -1.37203 | 12644 ft | 299 kts | 161° |
| 2026-05-09 10:19 | 51.55762 | -1.36046 | 11940 ft | 295 kts | 161° |
| 2026-05-09 10:19 | 51.53849 | -1.34924 | 11280 ft | 291 kts | 161° |
| 2026-05-09 10:19 | 51.51960 | -1.33819 | 10612 ft | 287 kts | 161° |
| 2026-05-09 10:19 | 51.50097 | -1.32729 | 9970 ft | 283 kts | 161° |
| 2026-05-09 10:20 | 51.48261 | -1.31654 | 9276 ft | 279 kts | 160° |
| 2026-05-09 10:20 | 51.46446 | -1.30596 | 8607 ft | 275 kts | 160° |
| 2026-05-09 10:20 | 51.44657 | -1.29553 | 7948 ft | 272 kts | 160° |
| 2026-05-09 10:20 | 51.42890 | -1.28519 | 7306 ft | 268 kts | 160° |
| 2026-05-09 10:21 | 51.41144 | -1.27499 | 6674 ft | 266 kts | 160° |
| 2026-05-09 10:21 | 51.39420 | -1.26498 | 6035 ft | 262 kts | 159° |
| 2026-05-09 10:21 | 51.37715 | -1.25508 | 5382 ft | 259 kts | 159° |
| 2026-05-09 10:21 | 51.36037 | -1.24533 | 4763 ft | 255 kts | 159° |
| 2026-05-09 10:22 | 51.34351 | -1.23665 | 4097 ft | 254 kts | 166° |
| 2026-05-09 10:22 | 51.32602 | -1.23342 | 3438 ft | 254 kts | 178° |
| 2026-05-09 10:22 | 51.30850 | -1.23473 | 3073 ft | 251 kts | 181° |
| 2026-05-09 10:22 | 51.29087 | -1.23617 | 3001 ft | 255 kts | 180° |
| 2026-05-09 10:23 | 51.27315 | -1.23756 | 3011 ft | 255 kts | 180° |
| 2026-05-09 10:23 | 51.25554 | -1.23895 | 3006 ft | 247 kts | 181° |
| 2026-05-09 10:23 | 51.23902 | -1.24030 | 3003 ft | 231 kts | 180° |
| 2026-05-09 10:23 | 51.22344 | -1.24162 | 3014 ft | 217 kts | 181° |
| 2026-05-09 10:24 | 51.20904 | -1.24283 | 3005 ft | 204 kts | 180° |
| 2026-05-09 10:24 | 51.19541 | -1.24463 | 2997 ft | 192 kts | 187° |
| 2026-05-09 10:24 | 51.18264 | -1.24971 | 3044 ft | 187 kts | 191° |
| 2026-05-09 10:24 | 51.17012 | -1.25497 | 3008 ft | 185 kts | 191° |
| 2026-05-09 10:25 | 51.15764 | -1.26022 | 3007 ft | 185 kts | 191° |
| 2026-05-09 10:25 | 51.14519 | -1.26544 | 3006 ft | 185 kts | 191° |
| 2026-05-09 10:25 | 51.13273 | -1.27065 | 2999 ft | 185 kts | 191° |
| 2026-05-09 10:25 | 51.12027 | -1.27588 | 3007 ft | 185 kts | 191° |
| 2026-05-09 10:26 | 51.10755 | -1.28120 | 3006 ft | 187 kts | 191° |
| 2026-05-09 10:26 | 51.09504 | -1.28641 | 3009 ft | 185 kts | 191° |
| 2026-05-09 10:26 | 51.08256 | -1.29161 | 3010 ft | 185 kts | 191° |
| 2026-05-09 10:26 | 51.07010 | -1.29682 | 3005 ft | 185 kts | 191° |
| 2026-05-09 10:27 | 51.05763 | -1.30205 | 3008 ft | 185 kts | 191° |
| 2026-05-09 10:27 | 51.04521 | -1.30728 | 3007 ft | 184 kts | 192° |
| 2026-05-09 10:27 | 51.03275 | -1.31252 | 3007 ft | 186 kts | 191° |
| 2026-05-09 10:27 | 51.02036 | -1.31824 | 3014 ft | 186 kts | 194° |
| 2026-05-09 10:28 | 51.00807 | -1.32469 | 3014 ft | 186 kts | 195° |
| 2026-05-09 10:28 | 50.99586 | -1.33139 | 3014 ft | 185 kts | 195° |
| 2026-05-09 10:28 | 50.98340 | -1.33311 | 3007 ft | 180 kts | 161° |
| 2026-05-09 10:28 | 50.97364 | -1.32187 | 3012 ft | 176 kts | 121° |
| 2026-05-09 10:29 | 50.97136 | -1.30318 | 3007 ft | 179 kts | 81° |
| 2026-05-09 10:29 | 50.97785 | -1.28641 | 3013 ft | 186 kts | 41° |
| 2026-05-09 10:29 | 50.98964 | -1.27742 | 3010 ft | 190 kts | 23° |
| 2026-05-09 10:29 | 51.00215 | -1.27072 | 3015 ft | 190 kts | 21° |
| 2026-05-09 10:30 | 51.01478 | -1.26434 | 3007 ft | 190 kts | 21° |
| 2026-05-09 10:30 | 51.02741 | -1.25787 | 3008 ft | 191 kts | 21° |
| 2026-05-09 10:30 | 51.04009 | -1.25150 | 3010 ft | 191 kts | 21° |
| 2026-05-09 10:30 | 51.05329 | -1.24747 | 3017 ft | 195 kts | 358° |
| 2026-05-09 10:31 | 51.06565 | -1.25620 | 3013 ft | 201 kts | 317° |
| 2026-05-09 10:31 | 51.07169 | -1.27563 | 2865 ft | 198 kts | 270° |
| 2026-05-09 10:31 | 51.06719 | -1.29495 | 2617 ft | 185 kts | 219° |
| 2026-05-09 10:31 | 51.05582 | -1.30195 | 2267 ft | 173 kts | 179° |
| 2026-05-09 10:32 | 51.04426 | -1.30401 | 1985 ft | 166 kts | 194° |
| 2026-05-09 10:32 | 51.03355 | -1.31030 | 1750 ft | 163 kts | 197° |
| 2026-05-09 10:32 | 51.02284 | -1.31629 | 1514 ft | 162 kts | 194° |
| 2026-05-09 10:32 | 51.01256 | -1.32205 | 1298 ft | 150 kts | 194° |
| 2026-05-09 10:33 | 51.00298 | -1.32741 | 1093 ft | 142 kts | 195° |
| 2026-05-09 10:33 | 50.99376 | -1.33255 | 892 ft | 137 kts | 194° |
| 2026-05-09 10:33 | 50.98492 | -1.33748 | 703 ft | 135 kts | 194° |
| 2026-05-09 10:33 | 50.97614 | -1.34234 | 433 ft | 131 kts | 195° |
| 2026-05-09 10:34 | 50.96730 | -1.34727 | 268 ft | 135 kts | 196° |
| 2026-05-09 10:34 | 50.95072 | -1.35645 | 40 ft | 82 kts | 200° |
| 2026-05-09 10:34 | 50.94737 | -1.35841 | 40 ft | 39 kts | 199° |
| 2026-05-09 10:35 | 50.94582 | -1.35926 | 39 ft | 17 kts | 206° |
| 2026-05-09 10:35 | 50.94589 | -1.36089 | 37 ft | 17 kts | 298° |
| 2026-05-09 10:35 | 50.94696 | -1.36121 | 39 ft | 18 kts | 18° |
| 2026-05-09 10:35 | 50.94817 | -1.36053 | 39 ft | 12 kts | 20° |
| 2026-05-09 10:36 | 50.94901 | -1.36071 | 39 ft | 14 kts | 296° |
| 2026-05-09 10:36 | 50.94936 | -1.36233 | 38 ft | 10 kts | 288° |
| 2026-05-09 10:36 | 50.94962 | -1.36261 | 39 ft | 6 kts | 15° |
| 2026-05-09 10:36 | 50.94999 | -1.36238 | 39 ft | 0 kts | 19° |